Time;durP1;ratioP1;P1;durP2;ratioP2;P2;SDS_P1;SDS_P2;PMS_P1;PMS_P2;Temp;Humidity;BMP_temperature;BMP_pressure;BME280_temperature;BME280_humidity;BME280_pressure;Samples;Min_cycle;Max_cycle;Signal;HPM_P1;HPM_P2
2021/08/10 00:01:06;;;;;;;6.83;3.70;;;19.40;99.90;;;;;;5014666;28;20663;-73
2021/08/10 00:03:32;;;;;;;3.30;3.00;;;19.50;99.90;;;;;;4991139;28;20424;-73
2021/08/10 00:05:57;;;;;;;3.23;2.93;;;19.60;99.90;;;;;;5010169;28;20560;-73
2021/08/10 00:08:23;;;;;;;17.40;3.97;;;19.70;99.90;;;;;;5012100;28;20207;-73
2021/08/10 00:10:50;;;;;;;6.27;3.23;;;19.60;99.90;;;;;;5007383;28;20197;-73
2021/08/10 00:13:19;;;;;;;7.60;3.03;;;19.40;99.90;;;;;;5011962;28;20212;-73
2021/08/10 00:15:44;;;;;;;5.57;3.30;;;19.30;99.90;;;;;;5010922;28;20436;-72
2021/08/10 00:18:10;;;;;;;4.60;2.77;;;19.30;99.90;;;;;;5007146;28;20439;-73
2021/08/10 00:20:36;;;;;;;3.43;3.00;;;19.20;99.90;;;;;;5010329;28;20220;-73
2021/08/10 00:23:03;;;;;;;5.63;3.10;;;19.20;99.90;;;;;;5006886;28;20900;-72
2021/08/10 00:25:29;;;;;;;4.80;3.60;;;19.20;99.90;;;;;;5005464;28;20563;-72
2021/08/10 00:27:55;;;;;;;4.63;3.13;;;19.30;99.90;;;;;;5010084;28;20515;-72
2021/08/10 00:30:22;;;;;;;3.40;3.10;;;19.20;99.90;;;;;;5005989;28;20220;-73
2021/08/10 00:32:48;;;;;;;6.77;3.00;;;19.20;99.90;;;;;;5006807;28;20436;-73
2021/08/10 00:35:14;;;;;;;4.90;3.70;;;19.30;99.90;;;;;;5008662;28;20463;-73
2021/08/10 00:37:40;;;;;;;7.60;3.60;;;19.30;99.90;;;;;;5005609;28;20464;-74
2021/08/10 00:40:06;;;;;;;4.47;2.93;;;19.30;99.90;;;;;;5012913;28;20221;-74
2021/08/10 00:42:32;;;;;;;10.20;3.67;;;19.20;99.90;;;;;;5004481;28;20969;-73
2021/08/10 00:44:58;;;;;;;4.83;3.30;;;19.30;99.90;;;;;;5010329;28;20467;-73
2021/08/10 00:47:24;;;;;;;3.73;3.20;;;19.30;99.90;;;;;;5010225;28;20652;-74
2021/08/10 00:49:49;;;;;;;5.00;3.47;;;19.40;99.90;;;;;;5004806;28;20232;-74
2021/08/10 00:52:15;;;;;;;4.00;3.23;;;19.10;99.90;;;;;;5013856;28;20197;-74
2021/08/10 00:54:41;;;;;;;3.43;2.87;;;19.10;99.90;;;;;;5006793;28;20327;-74
2021/08/10 00:57:08;;;;;;;5.90;3.10;;;19.10;99.90;;;;;;5005087;28;20968;-73
2021/08/10 00:59:34;;;;;;;5.53;2.73;;;19.10;99.90;;;;;;5015166;28;20200;-73
2021/08/10 01:02:01;;;;;;;4.70;2.87;;;19.20;99.90;;;;;;5006106;28;20446;-73
2021/08/10 01:04:26;;;;;;;3.43;2.83;;;19.20;99.90;;;;;;5007217;28;20607;-73
2021/08/10 01:07:07;;;;;;;4.63;3.30;;;19.30;99.90;;;;;;5011898;28;20420;-73
2021/08/10 01:09:55;;;;;;;3.93;3.00;;;19.50;99.90;;;;;;5005116;28;21858;-73
2021/08/10 01:12:28;;;;;;;3.33;3.03;;;19.50;99.90;;;;;;5005683;28;20455;-75
2021/08/10 01:15:12;;;;;;;6.90;3.47;;;19.30;99.90;;;;;;5012089;28;20479;-73
2021/08/10 01:17:43;;;;;;;4.17;3.10;;;19.30;99.90;;;;;;5013029;28;20651;-74
2021/08/10 01:21:06;;;;;;;4.60;3.50;;;19.20;99.90;;;;;;5009784;28;20455;-73
2021/08/10 01:23:33;;;;;;;3.40;3.00;;;19.20;99.90;;;;;;4974202;28;20442;-72
2021/08/10 01:26:00;;;;;;;7.70;3.40;;;19.00;99.90;;;;;;4990781;28;20986;-73
2021/08/10 01:28:34;;;;;;;7.03;3.13;;;18.70;99.90;;;;;;5002695;28;20846;-73
2021/08/10 01:31:06;;;;;;;3.40;3.10;;;18.60;99.90;;;;;;4993885;28;20822;-73
2021/08/10 01:33:38;;;;;;;5.13;2.97;;;18.60;99.90;;;;;;5018284;28;20435;-73
2021/08/10 01:36:05;;;;;;;4.47;3.10;;;18.60;99.90;;;;;;5010291;28;20452;-73
2021/08/10 01:38:33;;;;;;;7.07;3.20;;;18.80;99.90;;;;;;5014080;28;20507;-73
2021/08/10 01:41:00;;;;;;;4.90;2.67;;;18.90;99.90;;;;;;5012718;28;20428;-74
2021/08/10 01:43:27;;;;;;;4.20;2.80;;;19.00;99.90;;;;;;4991584;28;21096;-74
2021/08/10 01:45:54;;;;;;;3.53;3.13;;;18.70;99.90;;;;;;5009228;28;20526;-73
2021/08/10 01:48:21;;;;;;;4.30;2.90;;;18.60;99.90;;;;;;5014468;28;20524;-74
2021/08/10 01:50:47;;;;;;;3.40;2.60;;;18.60;99.90;;;;;;5010003;28;20502;-73
2021/08/10 01:53:14;;;;;;;3.13;2.83;;;18.50;99.90;;;;;;5009349;28;20808;-74
2021/08/10 01:55:41;;;;;;;5.23;3.10;;;18.50;99.90;;;;;;5010275;28;20472;-74
2021/08/10 01:58:07;;;;;;;10.43;2.80;;;18.40;99.90;;;;;;5008530;28;20490;-74
2021/08/10 02:00:35;;;;;;;6.77;3.00;;;18.30;99.90;;;;;;5014502;28;20456;-73
2021/08/10 02:03:07;;;;;;;4.00;2.80;;;18.20;99.90;;;;;;5012260;28;20463;-74
2021/08/10 02:05:34;;;;;;;4.20;3.30;;;18.10;99.90;;;;;;5007729;28;20502;-74
2021/08/10 02:08:00;;;;;;;4.63;2.93;;;18.10;99.90;;;;;;5009643;28;20443;-73
2021/08/10 02:10:28;;;;;;;3.30;2.90;;;18.20;99.90;;;;;;4991050;28;20475;-73
2021/08/10 02:12:54;;;;;;;6.03;2.90;;;18.10;99.90;;;;;;5007506;28;20513;-73
2021/08/10 02:15:20;;;;;;;3.43;2.90;;;18.10;99.90;;;;;;5014155;28;20526;-74
2021/08/10 02:17:46;;;;;;;2.93;2.73;;;18.30;99.90;;;;;;4993400;28;20580;-73
2021/08/10 02:20:13;;;;;;;2.70;2.47;;;18.30;99.90;;;;;;5012076;28;20217;-73
2021/08/10 02:22:41;;;;;;;3.13;2.83;;;18.40;99.90;;;;;;4983476;28;20276;-74
2021/08/10 02:25:10;;;;;;;3.10;2.77;;;18.30;99.90;;;;;;5006534;28;20499;-73
2021/08/10 02:27:41;;;;;;;7.23;3.03;;;18.40;99.90;;;;;;4992608;28;20436;-73
2021/08/10 02:30:09;;;;;;;4.63;2.73;;;18.40;99.90;;;;;;5010267;28;20538;-71
2021/08/10 02:32:37;;;;;;;3.93;2.97;;;18.40;99.90;;;;;;5005295;28;20435;-73
2021/08/10 02:35:04;;;;;;;4.10;2.60;;;18.50;99.90;;;;;;5012287;28;20442;-73
2021/08/10 02:37:32;;;;;;;3.27;2.97;;;18.60;99.90;;;;;;5009242;28;20494;-73
2021/08/10 02:40:02;;;;;;;3.07;2.70;;;18.30;99.90;;;;;;4989828;28;21082;-72
2021/08/10 02:42:28;;;;;;;6.77;3.63;;;18.20;99.90;;;;;;5014357;28;20432;-72
2021/08/10 02:44:58;;;;;;;3.23;2.90;;;18.20;99.90;;;;;;5003598;28;20476;-73
2021/08/10 02:47:25;;;;;;;3.13;2.67;;;17.80;99.90;;;;;;5012893;28;20613;-73
2021/08/10 02:49:50;;;;;;;4.03;3.20;;;17.70;99.90;;;;;;4999636;28;20812;-73
2021/08/10 02:52:16;;;;;;;3.47;3.17;;;17.50;99.90;;;;;;5003355;28;20447;-72
2021/08/10 02:54:42;;;;;;;4.67;3.40;;;17.40;99.90;;;;;;5010945;28;20771;-73
2021/08/10 02:57:33;;;;;;;3.73;3.17;;;17.70;99.90;;;;;;5012504;28;20196;-73
2021/08/10 03:00:07;;;;;;;4.23;2.70;;;17.90;99.90;;;;;;5008085;28;20494;-74
2021/08/10 03:02:45;;;;;;;4.07;3.20;;;18.10;99.90;;;;;;4994324;28;20538;-73
2021/08/10 03:05:14;;;;;;;5.20;4.70;;;18.20;99.90;;;;;;5013767;28;20558;-73
2021/08/10 03:07:46;;;;;;;3.33;2.80;;;18.10;99.90;;;;;;5010017;28;20562;-73
2021/08/10 03:10:14;;;;;;;3.10;2.80;;;18.00;99.90;;;;;;5013319;28;20983;-72
2021/08/10 03:12:45;;;;;;;3.00;2.70;;;17.80;99.90;;;;;;4997966;28;21176;-73
2021/08/10 03:15:13;;;;;;;4.40;3.07;;;17.80;99.90;;;;;;5006557;28;20522;-73
2021/08/10 03:17:40;;;;;;;3.00;2.80;;;17.70;99.90;;;;;;5012274;28;20442;-73
2021/08/10 03:20:08;;;;;;;5.50;3.40;;;17.90;99.90;;;;;;5004920;28;20466;-74
2021/08/10 03:22:37;;;;;;;5.20;3.00;;;17.70;99.90;;;;;;5004488;28;20468;-74
2021/08/10 03:25:04;;;;;;;5.03;3.07;;;17.50;99.90;;;;;;5013795;28;21026;-74
2021/08/10 03:27:31;;;;;;;5.73;2.87;;;17.40;99.90;;;;;;5010623;28;20518;-73
2021/08/10 03:29:58;;;;;;;5.77;3.60;;;17.30;99.90;;;;;;5009441;28;20459;-74
2021/08/10 03:32:24;;;;;;;4.80;3.20;;;17.40;99.90;;;;;;5014980;28;20412;-74
2021/08/10 03:34:52;;;;;;;6.00;3.30;;;17.30;99.90;;;;;;5012459;28;20468;-74
2021/08/10 03:37:19;;;;;;;5.40;3.30;;;17.50;99.90;;;;;;5009850;28;20447;-74
2021/08/10 03:39:45;;;;;;;5.50;3.90;;;17.40;99.90;;;;;;5010688;28;20459;-74
2021/08/10 03:42:12;;;;;;;6.03;3.70;;;17.50;99.90;;;;;;5004514;28;20439;-74
2021/08/10 03:44:42;;;;;;;6.30;3.33;;;17.50;99.90;;;;;;5012384;28;20491;-73
2021/08/10 03:47:14;;;;;;;7.13;3.40;;;17.30;99.90;;;;;;5011051;28;20439;-73
2021/08/10 03:49:41;;;;;;;3.63;3.33;;;17.50;99.90;;;;;;5006924;28;20500;-73
2021/08/10 03:52:10;;;;;;;3.67;3.37;;;17.40;99.90;;;;;;5015115;28;21011;-74
2021/08/10 03:54:36;;;;;;;5.43;3.00;;;17.50;99.90;;;;;;4986370;28;20932;-74
2021/08/10 03:57:02;;;;;;;4.37;3.20;;;17.40;99.90;;;;;;5007714;28;20932;-74
2021/08/10 03:59:30;;;;;;;5.47;3.30;;;17.30;99.90;;;;;;5014372;28;20495;-75
2021/08/10 04:01:56;;;;;;;3.20;2.90;;;17.30;99.90;;;;;;4986563;28;20944;-75
2021/08/10 04:04:24;;;;;;;4.73;3.47;;;17.30;99.90;;;;;;5013713;28;20474;-75
2021/08/10 04:06:50;;;;;;;5.57;3.47;;;17.40;99.90;;;;;;5014248;28;20640;-75
2021/08/10 04:09:16;;;;;;;3.90;3.50;;;17.40;99.90;;;;;;5005779;28;20444;-75
2021/08/10 04:11:42;;;;;;;4.83;3.40;;;17.40;99.90;;;;;;5009835;28;20810;-74
2021/08/10 04:14:08;;;;;;;8.37;3.83;;;17.20;99.90;;;;;;5009004;28;20523;-74
2021/08/10 04:16:50;;;;;;;4.33;3.20;;;17.20;99.90;;;;;;5010740;28;20518;-75
2021/08/10 04:19:19;;;;;;;4.40;3.17;;;17.30;99.90;;;;;;5012204;28;20537;-74
2021/08/10 04:21:45;;;;;;;4.57;3.70;;;17.20;99.90;;;;;;5007217;28;20471;-74
2021/08/10 04:24:10;;;;;;;4.07;3.40;;;17.20;99.90;;;;;;5007128;28;20560;-73
2021/08/10 04:26:37;;;;;;;5.37;3.20;;;17.10;99.90;;;;;;5010155;28;20217;-74
2021/08/10 04:29:03;;;;;;;5.70;4.20;;;17.20;99.90;;;;;;5003808;28;20301;-74
2021/08/10 04:31:29;;;;;;;3.40;3.10;;;17.40;99.90;;;;;;5010872;28;20467;-74
2021/08/10 04:33:54;;;;;;;4.53;3.23;;;17.40;99.90;;;;;;5010833;28;20452;-72
2021/08/10 04:36:20;;;;;;;7.37;3.37;;;17.40;99.90;;;;;;5007339;28;20602;-75
2021/08/10 04:38:46;;;;;;;13.47;4.33;;;17.50;99.90;;;;;;5011580;28;20708;-75
2021/08/10 04:41:11;;;;;;;3.87;3.53;;;17.50;99.90;;;;;;5009681;28;20189;-74
2021/08/10 04:43:37;;;;;;;6.10;3.80;;;17.60;99.90;;;;;;5011229;28;20197;-74
2021/08/10 04:46:02;;;;;;;3.67;3.30;;;17.60;99.90;;;;;;5012456;28;20193;-74
2021/08/10 04:48:28;;;;;;;3.80;3.23;;;17.70;99.90;;;;;;5011035;28;20197;-73
2021/08/10 04:50:54;;;;;;;3.80;3.17;;;17.80;99.90;;;;;;5016693;28;20570;-74
2021/08/10 04:53:19;;;;;;;5.70;3.27;;;17.70;99.90;;;;;;5012441;28;20678;-73
2021/08/10 04:55:45;;;;;;;4.50;3.60;;;17.70;99.90;;;;;;5015702;28;20198;-73
2021/08/10 04:58:11;;;;;;;6.33;3.63;;;17.80;99.90;;;;;;5016611;28;20640;-73
2021/08/10 05:00:37;;;;;;;3.83;3.43;;;17.80;99.90;;;;;;5009424;28;20466;-73
2021/08/10 05:03:03;;;;;;;4.27;3.10;;;18.00;99.90;;;;;;5016396;28;20443;-74
2021/08/10 05:05:28;;;;;;;5.47;4.00;;;18.10;99.90;;;;;;5014875;28;20262;-74
2021/08/10 05:07:54;;;;;;;8.07;4.37;;;18.00;99.90;;;;;;5007431;28;20193;-73
2021/08/10 05:10:20;;;;;;;6.13;4.23;;;18.10;99.90;;;;;;5017905;28;20291;-73
2021/08/10 05:12:45;;;;;;;3.17;2.87;;;18.20;99.90;;;;;;4990267;28;20198;-73
2021/08/10 05:15:11;;;;;;;4.07;3.40;;;18.20;99.90;;;;;;5009584;28;20868;-73
2021/08/10 05:17:37;;;;;;;6.83;3.23;;;18.30;99.90;;;;;;5010018;28;20200;-73
2021/08/10 05:20:03;;;;;;;5.73;2.90;;;18.20;99.90;;;;;;5009537;28;21010;-73
2021/08/10 05:22:29;;;;;;;3.60;3.17;;;18.20;99.90;;;;;;5013192;28;20219;-73
2021/08/10 05:24:54;;;;;;;4.00;3.63;;;18.10;99.90;;;;;;5012548;28;21030;-74
2021/08/10 05:27:20;;;;;;;3.67;3.20;;;18.10;99.90;;;;;;5007924;28;20217;-73
2021/08/10 05:29:46;;;;;;;5.40;3.23;;;18.00;99.90;;;;;;5011644;28;20248;-75
2021/08/10 05:32:12;;;;;;;5.93;3.60;;;18.00;99.90;;;;;;5010151;28;20543;-75
2021/08/10 05:34:38;;;;;;;8.37;4.03;;;18.10;99.90;;;;;;5011192;28;20260;-75
2021/08/10 05:37:05;;;;;;;3.90;3.50;;;18.10;99.90;;;;;;5009282;28;20284;-74
2021/08/10 05:39:30;;;;;;;3.47;3.17;;;18.10;99.90;;;;;;5011148;28;20958;-75
2021/08/10 05:41:56;;;;;;;4.50;3.53;;;18.00;99.90;;;;;;5012217;28;20441;-76
2021/08/10 05:44:22;;;;;;;4.50;4.07;;;18.00;99.90;;;;;;5012810;28;20279;-75
2021/08/10 05:46:47;;;;;;;3.80;3.30;;;18.10;99.90;;;;;;5010977;28;20301;-75
2021/08/10 05:49:13;;;;;;;4.93;3.50;;;18.10;99.90;;;;;;5014272;28;20308;-75
2021/08/10 05:51:39;;;;;;;5.53;3.47;;;18.00;99.90;;;;;;5012731;28;20683;-76
2021/08/10 05:54:04;;;;;;;5.83;4.00;;;18.10;99.90;;;;;;5009869;28;20185;-75
2021/08/10 05:56:30;;;;;;;5.80;3.60;;;18.10;99.90;;;;;;5014915;28;20196;-74
2021/08/10 05:58:56;;;;;;;6.93;3.60;;;18.20;99.90;;;;;;5006789;28;20285;-75
2021/08/10 06:01:22;;;;;;;6.40;4.00;;;18.20;99.90;;;;;;4996467;28;20752;-75
2021/08/10 06:03:47;;;;;;;4.80;3.50;;;18.20;99.90;;;;;;5014603;28;20233;-74
2021/08/10 06:06:13;;;;;;;4.07;3.53;;;18.30;99.90;;;;;;5010672;28;20281;-76
2021/08/10 06:08:39;;;;;;;5.57;3.50;;;18.20;99.90;;;;;;5011537;28;20656;-75
2021/08/10 06:11:04;;;;;;;4.40;4.00;;;18.20;99.90;;;;;;5005440;28;20245;-75
2021/08/10 06:13:30;;;;;;;5.80;3.80;;;18.20;99.90;;;;;;5007734;28;20194;-74
2021/08/10 06:15:55;;;;;;;4.10;3.30;;;18.30;99.90;;;;;;5013951;28;20196;-75
2021/08/10 06:18:21;;;;;;;4.60;3.53;;;18.40;99.90;;;;;;5011062;28;20198;-75
2021/08/10 06:20:47;;;;;;;5.90;3.77;;;18.40;99.90;;;;;;5011292;28;20221;-75
2021/08/10 06:23:12;;;;;;;4.30;3.47;;;18.30;99.90;;;;;;5010289;28;20224;-75
2021/08/10 06:25:38;;;;;;;4.23;3.83;;;18.30;99.90;;;;;;5008006;28;20616;-76
2021/08/10 06:28:04;;;;;;;5.37;3.40;;;18.20;99.90;;;;;;5014372;28;20581;-75
2021/08/10 06:30:30;;;;;;;4.00;3.60;;;18.40;99.90;;;;;;5014729;28;20235;-76
2021/08/10 06:32:55;;;;;;;4.17;3.33;;;18.40;99.90;;;;;;5009553;28;20491;-76
2021/08/10 06:35:21;;;;;;;5.00;3.40;;;18.50;99.90;;;;;;5013152;28;20228;-75
2021/08/10 06:37:46;;;;;;;6.07;3.70;;;18.60;99.90;;;;;;5014831;28;20193;-75
2021/08/10 06:40:12;;;;;;;9.30;4.70;;;18.70;99.90;;;;;;5009123;28;20315;-75
2021/08/10 06:42:38;;;;;;;4.00;3.30;;;18.80;99.90;;;;;;5014115;28;20198;-75
2021/08/10 06:45:04;;;;;;;10.40;3.60;;;18.90;99.90;;;;;;5008093;28;20704;-75
2021/08/10 06:47:29;;;;;;;3.80;3.37;;;18.90;99.90;;;;;;4995254;28;20185;-75
2021/08/10 06:49:55;;;;;;;3.53;3.23;;;18.90;99.90;;;;;;4995405;28;20462;-76
2021/08/10 06:52:21;;;;;;;5.53;3.40;;;19.00;99.90;;;;;;5004546;28;20731;-77
2021/08/10 06:54:47;;;;;;;5.33;3.70;;;19.10;99.90;;;;;;5014239;28;20200;-76
2021/08/10 06:57:13;;;;;;;3.50;3.20;;;19.20;99.90;;;;;;5010998;28;20440;-76
2021/08/10 06:59:38;;;;;;;3.60;3.10;;;19.30;99.90;;;;;;5007043;28;20216;-75
2021/08/10 07:02:06;;;;;;;5.83;3.60;;;19.30;99.90;;;;;;5013155;28;20504;-75
2021/08/10 07:04:32;;;;;;;3.30;3.00;;;19.40;99.90;;;;;;5013962;28;20204;-76
2021/08/10 07:07:02;;;;;;;5.00;3.70;;;19.40;99.90;;;;;;5003770;28;20453;-74
2021/08/10 07:09:27;;;;;;;5.13;3.60;;;19.50;99.90;;;;;;5015307;28;20460;-74
2021/08/10 07:11:53;;;;;;;6.20;3.27;;;19.50;99.90;;;;;;5007334;28;20446;-74
2021/08/10 07:14:19;;;;;;;4.90;3.00;;;19.50;99.90;;;;;;5006596;28;20731;-75
2021/08/10 07:16:45;;;;;;;3.27;2.97;;;19.60;99.90;;;;;;5012772;28;20188;-74
2021/08/10 07:19:15;;;;;;;7.73;3.50;;;19.60;99.90;;;;;;5009916;28;20212;-76
2021/08/10 07:21:41;;;;;;;6.47;3.77;;;19.60;99.90;;;;;;5010719;28;20429;-75
2021/08/10 07:24:07;;;;;;;3.57;3.00;;;19.60;99.90;;;;;;5014578;28;20459;-74
2021/08/10 07:26:33;;;;;;;4.70;3.10;;;19.70;99.90;;;;;;4988260;28;20802;-75
2021/08/10 07:29:00;;;;;;;5.07;3.80;;;19.80;99.90;;;;;;4998503;28;20529;-77
2021/08/10 07:31:25;;;;;;;3.83;3.03;;;19.80;99.90;;;;;;5014533;28;20180;-75
2021/08/10 07:33:51;;;;;;;3.53;3.20;;;19.90;99.90;;;;;;5004613;28;20429;-75
2021/08/10 07:36:17;;;;;;;3.60;3.30;;;19.90;99.90;;;;;;5012009;28;21553;-75
2021/08/10 07:38:44;;;;;;;5.23;2.93;;;20.00;99.90;;;;;;5008327;28;20619;-75
2021/08/10 07:41:10;;;;;;;3.10;2.80;;;20.10;99.90;;;;;;5006403;28;20444;-76
2021/08/10 07:43:35;;;;;;;4.53;3.80;;;20.10;99.90;;;;;;5008080;28;20456;-76
2021/08/10 07:46:01;;;;;;;5.00;3.43;;;20.10;99.90;;;;;;5008263;28;20300;-76
2021/08/10 07:48:27;;;;;;;5.90;3.30;;;20.20;99.90;;;;;;4990704;28;20661;-77
2021/08/10 07:50:53;;;;;;;5.30;3.37;;;20.20;99.90;;;;;;5009575;28;20188;-75
2021/08/10 07:53:23;;;;;;;2.90;2.60;;;20.20;99.90;;;;;;5006099;28;20239;-74
2021/08/10 07:55:49;;;;;;;3.80;3.20;;;20.10;99.90;;;;;;5010851;28;20463;-75
2021/08/10 07:58:14;;;;;;;3.63;3.33;;;20.10;99.90;;;;;;5012393;28;20935;-76
2021/08/10 08:00:40;;;;;;;4.17;3.27;;;20.10;99.90;;;;;;5008767;28;20465;-76
2021/08/10 08:03:06;;;;;;;5.00;2.93;;;20.10;99.90;;;;;;5010580;28;21014;-75
2021/08/10 08:05:32;;;;;;;5.20;2.87;;;20.10;99.90;;;;;;5006083;28;20205;-76
2021/08/10 08:07:58;;;;;;;3.47;3.03;;;20.10;99.90;;;;;;5009346;28;20221;-75
2021/08/10 08:10:24;;;;;;;4.87;3.07;;;20.30;99.90;;;;;;5008395;28;20525;-75
2021/08/10 08:12:50;;;;;;;3.77;2.77;;;20.40;99.90;;;;;;5007716;28;20439;-75
2021/08/10 08:15:16;;;;;;;3.40;2.90;;;20.50;99.90;;;;;;5011048;28;20840;-75
2021/08/10 08:17:41;;;;;;;5.50;3.13;;;20.60;99.90;;;;;;5005317;28;20196;-75
2021/08/10 08:20:08;;;;;;;6.70;3.50;;;20.60;99.90;;;;;;4991319;28;21528;-75
2021/08/10 08:22:34;;;;;;;4.33;3.70;;;20.70;99.90;;;;;;5007555;28;20181;-75
2021/08/10 08:25:00;;;;;;;4.10;3.23;;;20.70;99.90;;;;;;5009610;28;20567;-75
2021/08/10 08:27:26;;;;;;;4.23;3.30;;;20.80;99.90;;;;;;5014195;28;20523;-74
2021/08/10 08:29:51;;;;;;;6.80;4.50;;;20.80;99.90;;;;;;5014056;28;20982;-74
2021/08/10 08:32:17;;;;;;;5.03;3.10;;;20.80;99.90;;;;;;5008227;28;20186;-75
2021/08/10 08:34:43;;;;;;;4.23;3.10;;;20.80;99.90;;;;;;5014610;28;20197;-74
2021/08/10 08:37:08;;;;;;;4.13;2.90;;;20.90;99.90;;;;;;5012296;28;20200;-75
2021/08/10 08:39:34;;;;;;;5.40;3.43;;;21.00;99.90;;;;;;5012490;28;20898;-75
2021/08/10 08:42:01;;;;;;;6.47;3.60;;;21.10;99.90;;;;;;5012626;28;20189;-75
2021/08/10 08:44:34;;;;;;;3.20;2.67;;;21.10;99.90;;;;;;5011612;28;20299;-74
2021/08/10 08:47:02;;;;;;;4.30;3.63;;;21.30;99.90;;;;;;5017848;28;20455;-74
2021/08/10 08:49:30;;;;;;;3.90;2.97;;;21.40;99.90;;;;;;5018452;28;20450;-75
2021/08/10 08:51:59;;;;;;;4.20;3.20;;;21.40;99.90;;;;;;4994694;28;20438;-75
2021/08/10 08:54:25;;;;;;;7.27;3.03;;;21.50;99.90;;;;;;5012920;28;20447;-74
2021/08/10 08:56:51;;;;;;;5.13;3.23;;;21.50;99.90;;;;;;5019361;28;20437;-75
2021/08/10 08:59:18;;;;;;;5.23;3.47;;;21.60;99.90;;;;;;5008493;28;20831;-74
2021/08/10 09:01:44;;;;;;;4.07;3.40;;;21.50;99.90;;;;;;5015772;28;20275;-73
2021/08/10 09:04:09;;;;;;;3.27;2.97;;;21.60;99.90;;;;;;5011606;28;20849;-77
2021/08/10 09:06:35;;;;;;;3.77;3.47;;;21.70;99.90;;;;;;5013537;28;20181;-73
2021/08/10 09:09:20;;;;;;;3.70;3.40;;;21.80;99.90;;;;;;5017339;28;20287;-73
2021/08/10 09:11:52;;;;;;;4.83;2.90;;;21.80;99.90;;;;;;4996617;28;20180;-74
2021/08/10 09:14:18;;;;;;;4.50;3.07;;;21.90;99.90;;;;;;5014057;28;20442;-73
2021/08/10 09:17:07;;;;;;;3.37;3.07;;;21.90;99.90;;;;;;5016501;28;20490;-73
2021/08/10 09:19:44;;;;;;;5.47;3.40;;;22.00;99.90;;;;;;5010627;28;20454;-75
2021/08/10 09:22:17;;;;;;;2.83;2.53;;;22.20;99.90;;;;;;5009321;28;20622;-76
2021/08/10 09:24:51;;;;;;;3.70;2.70;;;22.30;99.90;;;;;;5012993;28;20465;-77
2021/08/10 09:27:38;;;;;;;5.33;3.23;;;22.30;99.90;;;;;;5012484;28;20413;-74
2021/08/10 09:30:11;;;;;;;2.97;2.60;;;22.40;99.90;;;;;;5008387;28;20926;-76
2021/08/10 09:32:52;;;;;;;3.43;3.10;;;22.50;99.90;;;;;;5004444;28;20439;-76
2021/08/10 09:35:20;;;;;;;4.70;2.67;;;22.60;99.90;;;;;;5011921;28;20580;-76
2021/08/10 09:38:02;;;;;;;4.00;2.97;;;22.60;99.90;;;;;;5009851;28;21156;-76
2021/08/10 09:40:54;;;;;;;3.00;2.33;;;22.70;99.90;;;;;;5013848;28;20455;-76
2021/08/10 09:43:26;;;;;;;5.60;2.97;;;22.80;99.90;;;;;;4993347;28;20436;-76
2021/08/10 09:46:14;;;;;;;3.53;3.00;;;22.90;99.90;;;;;;5005728;28;20488;-75
2021/08/10 09:49:02;;;;;;;3.70;3.40;;;23.00;99.90;;;;;;5013355;28;20794;-76
2021/08/10 09:51:32;;;;;;;5.90;3.77;;;22.90;99.90;;;;;;5012181;28;21000;-75
2021/08/10 09:54:07;;;;;;;2.83;2.53;;;23.00;99.90;;;;;;5008816;28;20428;-76
2021/08/10 09:56:53;;;;;;;4.40;3.10;;;22.90;99.90;;;;;;5011819;28;20443;-75
2021/08/10 09:59:47;;;;;;;4.70;3.37;;;23.10;99.90;;;;;;5006767;28;20497;-76
2021/08/10 10:02:21;;;;;;;3.33;2.97;;;23.30;99.90;;;;;;5001981;28;20522;-75
2021/08/10 10:04:55;;;;;;;6.33;3.30;;;23.40;99.90;;;;;;5013525;28;20479;-75
2021/08/10 10:07:21;;;;;;;3.30;2.70;;;23.40;99.90;;;;;;5014823;28;20447;-75
2021/08/10 10:09:47;;;;;;;4.70;2.87;;;23.40;99.90;;;;;;5007042;28;20899;-74
2021/08/10 10:12:14;;;;;;;5.40;3.00;;;23.40;99.90;;;;;;5011056;28;20775;-74
2021/08/10 10:14:41;;;;;;;3.33;2.80;;;23.40;99.90;;;;;;5010578;28;20974;-74
2021/08/10 10:17:09;;;;;;;4.80;2.80;;;23.60;99.90;;;;;;5010900;28;20499;-75
2021/08/10 10:19:36;;;;;;;5.47;2.93;;;23.70;99.90;;;;;;5016256;28;20546;-75
2021/08/10 10:22:13;;;;;;;4.60;2.73;;;23.70;99.90;;;;;;5011364;28;20439;-75
2021/08/10 10:24:46;;;;;;;2.93;2.63;;;23.70;99.90;;;;;;5010356;28;21129;-75
2021/08/10 10:27:12;;;;;;;3.33;3.00;;;23.80;99.90;;;;;;5015021;28;20859;-75
2021/08/10 10:29:40;;;;;;;2.83;2.60;;;23.80;99.90;;;;;;4994490;28;20449;-75
2021/08/10 10:32:06;;;;;;;3.23;2.60;;;23.80;99.90;;;;;;5012232;28;20455;-75
2021/08/10 10:34:35;;;;;;;2.97;2.70;;;23.90;99.90;;;;;;5018377;28;20450;-75
2021/08/10 10:37:02;;;;;;;4.67;3.33;;;23.90;99.90;;;;;;5008255;28;20459;-74
2021/08/10 10:39:31;;;;;;;3.00;2.63;;;23.80;99.90;;;;;;5017688;28;20463;-74
2021/08/10 10:42:03;;;;;;;2.90;2.40;;;24.00;99.90;;;;;;5013138;28;20435;-76
2021/08/10 10:44:51;;;;;;;5.07;2.80;;;24.00;99.90;;;;;;5008592;28;20468;-76
2021/08/10 10:47:20;;;;;;;3.47;2.60;;;24.00;99.90;;;;;;5011640;28;20953;-76
2021/08/10 10:49:58;;;;;;;2.87;2.57;;;24.40;99.90;;;;;;5007058;28;20463;-76
2021/08/10 10:52:24;;;;;;;2.93;2.63;;;24.50;99.90;;;;;;5005521;28;20452;-76
2021/08/10 10:54:51;;;;;;;4.47;2.83;;;24.60;99.90;;;;;;5007938;28;20901;-76
2021/08/10 10:57:29;;;;;;;3.43;3.13;;;24.80;99.90;;;;;;5015711;28;20452;-76
2021/08/10 10:59:56;;;;;;;3.60;2.60;;;24.90;99.90;;;;;;5007082;28;20833;-76
2021/08/10 11:02:25;;;;;;;3.10;2.80;;;24.60;99.90;;;;;;5008224;28;20450;-75
2021/08/10 11:05:06;;;;;;;5.10;3.30;;;24.70;99.90;;;;;;5013047;28;20981;-76
2021/08/10 11:07:36;;;;;;;5.00;3.07;;;24.50;99.90;;;;;;5003767;28;20813;-74
2021/08/10 11:10:12;;;;;;;2.97;2.67;;;24.60;99.90;;;;;;5007786;28;20448;-75
2021/08/10 11:12:44;;;;;;;7.73;3.03;;;24.80;99.90;;;;;;5009786;28;20435;-75
2021/08/10 11:15:18;;;;;;;3.07;2.77;;;24.70;99.90;;;;;;5009160;28;21026;-77
2021/08/10 11:18:06;;;;;;;3.70;3.03;;;24.80;99.90;;;;;;5005870;28;20440;-77
2021/08/10 11:20:32;;;;;;;3.60;2.83;;;24.90;99.90;;;;;;5016042;28;20530;-75
2021/08/10 11:23:20;;;;;;;5.70;3.40;;;25.00;99.90;;;;;;5007668;28;20948;-75
2021/08/10 11:25:49;;;;;;;3.63;3.23;;;25.20;99.90;;;;;;5006116;28;20470;-75
2021/08/10 11:28:27;;;;;;;4.20;2.80;;;25.00;99.90;;;;;;5014084;28;20955;-76
2021/08/10 11:30:55;;;;;;;4.10;3.23;;;25.10;99.90;;;;;;5013987;28;20775;-75
2021/08/10 11:33:37;;;;;;;4.30;3.13;;;24.80;99.90;;;;;;5020543;23;20496;-67
2021/08/10 11:36:11;;;;;;;4.47;3.10;;;24.70;99.90;;;;;;4990259;28;20437;-67
2021/08/10 11:39:04;;;;;;;3.20;2.90;;;24.80;99.90;;;;;;4994301;28;20407;-66
2021/08/10 11:41:39;;;;;;;3.10;2.80;;;24.60;99.90;;;;;;4990032;28;20441;-65
2021/08/10 11:44:19;;;;;;;7.87;3.00;;;24.50;99.90;;;;;;4975006;28;20511;-67
2021/08/10 11:46:46;;;;;;;4.30;3.10;;;24.50;99.90;;;;;;4990223;28;20708;-67
2021/08/10 11:49:20;;;;;;;6.57;3.40;;;24.70;99.90;;;;;;4993965;28;20897;-62
2021/08/10 11:51:47;;;;;;;4.60;2.80;;;24.90;99.90;;;;;;4986297;28;20441;-64
2021/08/10 11:54:23;;;;;;;4.13;2.77;;;24.90;99.90;;;;;;4997449;28;20889;-67
2021/08/10 11:56:50;;;;;;;5.43;3.00;;;25.00;99.90;;;;;;4991924;28;20793;-68
2021/08/10 11:59:21;;;;;;;4.80;2.80;;;25.00;99.90;;;;;;4988667;28;20442;-67
2021/08/10 12:01:47;;;;;;;3.20;2.77;;;25.00;99.90;;;;;;4991546;28;20456;-67
2021/08/10 12:04:21;;;;;;;5.37;2.90;;;24.90;99.90;;;;;;4991810;28;20600;-67
2021/08/10 12:06:53;;;;;;;3.10;2.80;;;25.10;99.90;;;;;;4991043;28;20441;-68
2021/08/10 12:09:26;;;;;;;2.97;2.53;;;25.40;99.90;;;;;;4993139;28;20801;-68
2021/08/10 12:11:57;;;;;;;3.40;2.90;;;25.50;99.90;;;;;;4993570;28;20719;-68
2021/08/10 12:14:25;;;;;;;5.23;3.20;;;25.60;99.90;;;;;;4975300;28;20984;-68
2021/08/10 12:17:10;;;;;;;6.17;2.77;;;25.80;99.90;;;;;;4991021;28;20448;-68
2021/08/10 12:19:43;;;;;;;5.33;3.17;;;25.70;99.90;;;;;;4992868;28;20432;-66
2021/08/10 12:22:18;;;;;;;3.57;2.80;;;25.60;99.90;;;;;;4990745;28;20429;-66
2021/08/10 12:24:45;;;;;;;3.40;3.10;;;25.60;99.90;;;;;;4991966;28;20471;-67
2021/08/10 12:27:13;;;;;;;3.70;3.13;;;25.50;99.90;;;;;;4974536;28;20528;-67
2021/08/10 12:29:44;;;;;;;3.93;3.43;;;25.50;99.90;;;;;;4991192;28;20439;-67
2021/08/10 12:32:24;;;;;;;4.90;3.20;;;25.70;99.90;;;;;;4993134;28;20512;-65
2021/08/10 12:34:50;;;;;;;6.00;3.20;;;25.70;99.90;;;;;;4992527;28;20449;-67
2021/08/10 12:37:16;;;;;;;5.13;3.10;;;25.80;99.90;;;;;;4993293;28;20809;-65
2021/08/10 12:39:48;;;;;;;4.47;3.00;;;25.80;99.90;;;;;;4983089;28;21108;-65
2021/08/10 12:42:15;;;;;;;6.53;3.23;;;26.30;99.90;;;;;;4991127;28;20444;-65
2021/08/10 12:44:44;;;;;;;3.73;3.33;;;26.60;99.90;;;;;;4988594;28;20571;-64
2021/08/10 12:47:09;;;;;;;3.07;2.77;;;27.00;99.90;;;;;;4979737;28;20443;-62
2021/08/10 12:49:38;;;;;;;4.80;3.33;;;27.40;99.90;;;;;;4986082;28;20448;-62
2021/08/10 12:52:12;;;;;;;3.30;2.80;;;27.40;99.90;;;;;;4986905;28;20218;-65
2021/08/10 12:54:50;;;;;;;3.43;3.13;;;27.80;99.90;;;;;;4991150;28;20447;-65